Huvudsida
METAR-TAF:

METAR-TAF

Flygplatser :

Cape Lisburne, Alaska, USA

latitud: 68-53N, longitud: 166-06W, höjd: 4 m

Aktuellt väderrapport

Denna rapport gjordes för 42 minuter sedan, klockan 18:55 UTC
Vind 10 kt från syd
Temperatur 7°C
Fuktighet 87%
Tryck 1022 hPa
Sikt: 8.0 km
Brutna moln på en höjd av 1000 ft
Mulet på en höjd av 2400 ft
lätt duggregn

METAR: PALU 141855Z 19010KT 5SM -DZ BKN010 OVC024 07/05 A3019 RMK AO2A DZB1851 SLP223 BWC LOW

Tid: 11:37 (19:37 UTC)


TAF: saknas

Aktuella väderrapporter och prognoser från 4000 flygplatser (METAR- och TAF-rapporter).

De tillgängliga stationerna syns som gula och röda prickar på kartan.

För musen över prickarna för att se namnen på stationerna.

Klicka sedan för att få väderrapporter och prognoser.

För att ändra kartan: Klicka på de gröna knapparna med ett svart kors på för att zooma in; den gröna knappen med ett streck på för att zooma ut; eller på de gröna pilarna för angränsande kartor.


METAR-TAF: